sensor_id;sensor_type;location;lat;lon;timestamp;P1;durP1;ratioP1;P2;durP2;ratioP2
2129;SDS011;1071;52.544;13.374;2023-04-01T00:00:27;3.58;;;2.75;;
2129;SDS011;1071;52.544;13.374;2023-04-01T00:02:54;2.78;;;2.55;;
2129;SDS011;1071;52.544;13.374;2023-04-01T00:05:25;4.15;;;3.08;;
2129;SDS011;1071;52.544;13.374;2023-04-01T00:07:52;2.53;;;2.33;;
2129;SDS011;1071;52.544;13.374;2023-04-01T00:10:19;3.40;;;2.38;;
2129;SDS011;1071;52.544;13.374;2023-04-01T00:12:48;2.55;;;2.35;;
2129;SDS011;1071;52.544;13.374;2023-04-01T00:15:15;2.78;;;2.08;;
2129;SDS011;1071;52.544;13.374;2023-04-01T00:17:42;3.15;;;2.10;;
2129;SDS011;1071;52.544;13.374;2023-04-01T00:20:10;2.97;;;2.42;;
2129;SDS011;1071;52.544;13.374;2023-04-01T00:22:39;2.90;;;2.00;;
2129;SDS011;1071;52.544;13.374;2023-04-01T00:25:08;2.40;;;2.20;;
2129;SDS011;1071;52.544;13.374;2023-04-01T00:27:35;2.53;;;2.10;;
2129;SDS011;1071;52.544;13.374;2023-04-01T00:30:16;1.55;;;1.45;;
2129;SDS011;1071;52.544;13.374;2023-04-01T00:32:44;3.05;;;2.35;;
2129;SDS011;1071;52.544;13.374;2023-04-01T00:35:11;2.50;;;2.30;;
2129;SDS011;1071;52.544;13.374;2023-04-01T00:37:38;3.08;;;2.88;;
2129;SDS011;1071;52.544;13.374;2023-04-01T00:40:07;2.47;;;2.28;;
2129;SDS011;1071;52.544;13.374;2023-04-01T00:42:53;3.17;;;2.60;;
2129;SDS011;1071;52.544;13.374;2023-04-01T00:45:25;5.60;;;2.63;;
2129;SDS011;1071;52.544;13.374;2023-04-01T00:47:55;2.58;;;2.38;;
2129;SDS011;1071;52.544;13.374;2023-04-01T00:50:26;2.60;;;2.28;;
2129;SDS011;1071;52.544;13.374;2023-04-01T00:52:57;2.47;;;2.00;;
2129;SDS011;1071;52.544;13.374;2023-04-01T00:55:31;2.40;;;1.95;;
2129;SDS011;1071;52.544;13.374;2023-04-01T00:58:03;2.47;;;2.25;;
2129;SDS011;1071;52.544;13.374;2023-04-01T01:00:35;2.95;;;2.33;;
2129;SDS011;1071;52.544;13.374;2023-04-01T01:03:04;1.67;;;1.58;;
2129;SDS011;1071;52.544;13.374;2023-04-01T01:05:35;2.15;;;2.05;;
2129;SDS011;1071;52.544;13.374;2023-04-01T01:08:14;1.70;;;1.60;;
2129;SDS011;1071;52.544;13.374;2023-04-01T01:10:50;3.05;;;2.30;;
2129;SDS011;1071;52.544;13.374;2023-04-01T01:13:17;2.92;;;2.13;;
2129;SDS011;1071;52.544;13.374;2023-04-01T01:15:55;6.10;;;5.57;;
2129;SDS011;1071;52.544;13.374;2023-04-01T01:18:27;3.35;;;3.03;;
2129;SDS011;1071;52.544;13.374;2023-04-01T01:21:30;3.03;;;2.83;;
2129;SDS011;1071;52.544;13.374;2023-04-01T01:24:36;4.20;;;2.25;;
2129;SDS011;1071;52.544;13.374;2023-04-01T01:27:17;2.50;;;2.30;;
2129;SDS011;1071;52.544;13.374;2023-04-01T01:36:12;3.30;;;2.20;;
2129;SDS011;1071;52.544;13.374;2023-04-01T01:38:41;4.70;;;2.63;;
2129;SDS011;1071;52.544;13.374;2023-04-01T01:41:09;4.40;;;2.35;;
2129;SDS011;1071;52.544;13.374;2023-04-01T01:43:39;3.95;;;2.45;;
2129;SDS011;1071;52.544;13.374;2023-04-01T01:46:09;3.45;;;2.67;;
2129;SDS011;1071;52.544;13.374;2023-04-01T01:48:38;2.70;;;2.50;;
2129;SDS011;1071;52.544;13.374;2023-04-01T01:51:09;4.22;;;2.28;;
2129;SDS011;1071;52.544;13.374;2023-04-01T01:53:38;4.00;;;2.50;;
2129;SDS011;1071;52.544;13.374;2023-04-01T01:56:05;3.35;;;2.30;;
2129;SDS011;1071;52.544;13.374;2023-04-01T01:58:33;4.95;;;2.88;;
2129;SDS011;1071;52.544;13.374;2023-04-01T02:01:06;3.30;;;2.40;;
2129;SDS011;1071;52.544;13.374;2023-04-01T02:03:37;3.03;;;2.67;;
2129;SDS011;1071;52.544;13.374;2023-04-01T02:06:08;4.93;;;2.20;;
2129;SDS011;1071;52.544;13.374;2023-04-01T02:08:41;2.88;;;2.40;;
2129;SDS011;1071;52.544;13.374;2023-04-01T02:11:12;4.10;;;2.13;;
2129;SDS011;1071;52.544;13.374;2023-04-01T02:13:45;2.90;;;2.15;;
2129;SDS011;1071;52.544;13.374;2023-04-01T02:16:18;3.35;;;2.47;;
2129;SDS011;1071;52.544;13.374;2023-04-01T02:18:49;2.95;;;2.67;;
2129;SDS011;1071;52.544;13.374;2023-04-01T02:21:20;3.53;;;2.63;;
2129;SDS011;1071;52.544;13.374;2023-04-01T02:23:51;7.15;;;2.83;;
2129;SDS011;1071;52.544;13.374;2023-04-01T02:26:20;2.13;;;2.03;;
2129;SDS011;1071;52.544;13.374;2023-04-01T02:28:48;2.65;;;2.45;;
2129;SDS011;1071;52.544;13.374;2023-04-01T02:31:17;2.05;;;1.85;;
2129;SDS011;1071;52.544;13.374;2023-04-01T02:33:44;4.38;;;2.40;;
2129;SDS011;1071;52.544;13.374;2023-04-01T02:36:13;2.72;;;2.33;;
2129;SDS011;1071;52.544;13.374;2023-04-01T02:38:43;2.50;;;2.30;;
2129;SDS011;1071;52.544;13.374;2023-04-01T02:41:23;2.40;;;2.20;;
2129;SDS011;1071;52.544;13.374;2023-04-01T02:44:13;3.38;;;2.47;;
2129;SDS011;1071;52.544;13.374;2023-04-01T02:46:45;2.72;;;2.30;;
2129;SDS011;1071;52.544;13.374;2023-04-01T02:49:12;3.15;;;2.83;;
2129;SDS011;1071;52.544;13.374;2023-04-01T02:51:44;2.80;;;2.33;;
2129;SDS011;1071;52.544;13.374;2023-04-01T02:54:11;2.83;;;2.47;;
2129;SDS011;1071;52.544;13.374;2023-04-01T02:56:43;3.45;;;2.67;;
2129;SDS011;1071;52.544;13.374;2023-04-01T02:59:10;3.35;;;2.42;;
2129;SDS011;1071;52.544;13.374;2023-04-01T03:01:38;2.40;;;2.20;;
2129;SDS011;1071;52.544;13.374;2023-04-01T03:04:07;2.97;;;2.67;;
2129;SDS011;1071;52.544;13.374;2023-04-01T03:06:35;4.22;;;2.65;;
2129;SDS011;1071;52.544;13.374;2023-04-01T03:09:02;2.72;;;2.53;;
2129;SDS011;1071;52.544;13.374;2023-04-01T03:11:30;3.78;;;2.30;;
2129;SDS011;1071;52.544;13.374;2023-04-01T03:13:58;2.58;;;2.38;;
2129;SDS011;1071;52.544;13.374;2023-04-01T03:16:27;2.15;;;1.95;;
2129;SDS011;1071;52.544;13.374;2023-04-01T03:18:55;2.35;;;2.15;;
2129;SDS011;1071;52.544;13.374;2023-04-01T03:21:24;3.65;;;2.20;;
2129;SDS011;1071;52.544;13.374;2023-04-01T03:23:51;4.60;;;2.67;;
2129;SDS011;1071;52.544;13.374;2023-04-01T03:26:21;2.67;;;2.45;;
2129;SDS011;1071;52.544;13.374;2023-04-01T03:28:48;3.75;;;3.20;;
2129;SDS011;1071;52.544;13.374;2023-04-01T03:31:17;3.17;;;2.50;;
2129;SDS011;1071;52.544;13.374;2023-04-01T03:33:45;3.65;;;2.50;;
2129;SDS011;1071;52.544;13.374;2023-04-01T03:36:17;3.45;;;2.60;;
2129;SDS011;1071;52.544;13.374;2023-04-01T03:38:44;3.65;;;2.58;;
2129;SDS011;1071;52.544;13.374;2023-04-01T03:41:12;3.22;;;2.33;;
2129;SDS011;1071;52.544;13.374;2023-04-01T03:43:39;2.20;;;2.00;;
2129;SDS011;1071;52.544;13.374;2023-04-01T03:46:09;4.93;;;2.92;;
2129;SDS011;1071;52.544;13.374;2023-04-01T03:48:40;2.97;;;2.00;;
2129;SDS011;1071;52.544;13.374;2023-04-01T03:51:08;2.30;;;2.00;;
2129;SDS011;1071;52.544;13.374;2023-04-01T03:53:36;2.35;;;2.03;;
2129;SDS011;1071;52.544;13.374;2023-04-01T03:56:04;3.70;;;2.25;;
2129;SDS011;1071;52.544;13.374;2023-04-01T03:58:35;4.85;;;2.95;;
2129;SDS011;1071;52.544;13.374;2023-04-01T04:01:13;2.55;;;2.22;;
2129;SDS011;1071;52.544;13.374;2023-04-01T04:03:43;3.15;;;2.85;;
2129;SDS011;1071;52.544;13.374;2023-04-01T04:06:11;3.28;;;2.47;;
2129;SDS011;1071;52.544;13.374;2023-04-01T04:08:39;3.70;;;2.90;;
2129;SDS011;1071;52.544;13.374;2023-04-01T04:11:07;3.40;;;2.95;;
2129;SDS011;1071;52.544;13.374;2023-04-01T04:13:35;3.22;;;2.60;;
2129;SDS011;1071;52.544;13.374;2023-04-01T04:16:02;4.38;;;2.70;;
2129;SDS011;1071;52.544;13.374;2023-04-01T04:18:29;2.72;;;2.50;;
2129;SDS011;1071;52.544;13.374;2023-04-01T04:20:59;2.20;;;1.88;;
2129;SDS011;1071;52.544;13.374;2023-04-01T04:23:26;3.55;;;2.75;;
2129;SDS011;1071;52.544;13.374;2023-04-01T04:25:55;2.78;;;2.30;;
2129;SDS011;1071;52.544;13.374;2023-04-01T04:28:23;7.97;;;5.75;;
2129;SDS011;1071;52.544;13.374;2023-04-01T04:30:51;8.80;;;5.93;;
2129;SDS011;1071;52.544;13.374;2023-04-01T04:33:21;4.35;;;3.30;;
2129;SDS011;1071;52.544;13.374;2023-04-01T04:35:49;3.70;;;3.40;;
2129;SDS011;1071;52.544;13.374;2023-04-01T04:38:19;5.93;;;3.47;;
2129;SDS011;1071;52.544;13.374;2023-04-01T04:40:46;2.85;;;2.60;;
2129;SDS011;1071;52.544;13.374;2023-04-01T04:43:15;2.90;;;2.50;;
2129;SDS011;1071;52.544;13.374;2023-04-01T04:45:42;3.80;;;3.35;;
2129;SDS011;1071;52.544;13.374;2023-04-01T04:48:12;4.22;;;2.67;;
2129;SDS011;1071;52.544;13.374;2023-04-01T04:50:43;8.35;;;3.30;;
2129;SDS011;1071;52.544;13.374;2023-04-01T04:53:11;2.30;;;2.10;;
2129;SDS011;1071;52.544;13.374;2023-04-01T04:55:43;3.10;;;2.80;;
2129;SDS011;1071;52.544;13.374;2023-04-01T04:58:11;3.75;;;2.83;;
2129;SDS011;1071;52.544;13.374;2023-04-01T05:00:38;4.20;;;3.00;;
2129;SDS011;1071;52.544;13.374;2023-04-01T05:03:06;5.57;;;3.40;;
2129;SDS011;1071;52.544;13.374;2023-04-01T05:05:47;3.00;;;2.70;;
2129;SDS011;1071;52.544;13.374;2023-04-01T05:08:19;3.85;;;2.80;;
2129;SDS011;1071;52.544;13.374;2023-04-01T05:10:49;3.60;;;2.90;;
2129;SDS011;1071;52.544;13.374;2023-04-01T05:13:16;3.25;;;2.95;;
2129;SDS011;1071;52.544;13.374;2023-04-01T05:15:48;4.53;;;3.85;;
2129;SDS011;1071;52.544;13.374;2023-04-01T05:18:15;3.20;;;2.75;;
2129;SDS011;1071;52.544;13.374;2023-04-01T05:20:46;3.78;;;3.00;;
2129;SDS011;1071;52.544;13.374;2023-04-01T05:23:14;4.10;;;3.70;;
2129;SDS011;1071;52.544;13.374;2023-04-01T05:25:41;5.75;;;3.95;;
2129;SDS011;1071;52.544;13.374;2023-04-01T05:28:11;3.55;;;3.25;;
2129;SDS011;1071;52.544;13.374;2023-04-01T05:30:39;4.35;;;3.70;;
2129;SDS011;1071;52.544;13.374;2023-04-01T05:33:07;4.20;;;3.80;;
2129;SDS011;1071;52.544;13.374;2023-04-01T05:35:34;9.68;;;5.45;;
2129;SDS011;1071;52.544;13.374;2023-04-01T05:38:01;6.88;;;5.25;;
2129;SDS011;1071;52.544;13.374;2023-04-01T05:40:30;7.53;;;3.78;;
2129;SDS011;1071;52.544;13.374;2023-04-01T05:42:58;4.95;;;3.65;;
2129;SDS011;1071;52.544;13.374;2023-04-01T05:45:27;6.20;;;3.75;;
2129;SDS011;1071;52.544;13.374;2023-04-01T05:47:54;5.10;;;3.10;;
2129;SDS011;1071;52.544;13.374;2023-04-01T05:50:21;9.93;;;5.80;;
2129;SDS011;1071;52.544;13.374;2023-04-01T05:52:48;4.47;;;3.72;;
2129;SDS011;1071;52.544;13.374;2023-04-01T05:55:15;4.70;;;3.15;;
2129;SDS011;1071;52.544;13.374;2023-04-01T05:57:44;4.22;;;3.50;;
2129;SDS011;1071;52.544;13.374;2023-04-01T06:00:13;5.68;;;3.45;;
2129;SDS011;1071;52.544;13.374;2023-04-01T06:02:42;3.42;;;3.13;;
2129;SDS011;1071;52.544;13.374;2023-04-01T06:05:12;4.07;;;3.42;;
2129;SDS011;1071;52.544;13.374;2023-04-01T06:07:42;5.82;;;3.03;;
2129;SDS011;1071;52.544;13.374;2023-04-01T06:10:13;5.05;;;4.25;;
2129;SDS011;1071;52.544;13.374;2023-04-01T06:12:56;4.35;;;3.78;;
2129;SDS011;1071;52.544;13.374;2023-04-01T06:15:35;5.60;;;3.92;;
2129;SDS011;1071;52.544;13.374;2023-04-01T06:18:19;4.20;;;3.80;;
2129;SDS011;1071;52.544;13.374;2023-04-01T06:24:26;5.35;;;4.35;;
2129;SDS011;1071;52.544;13.374;2023-04-01T06:27:07;5.05;;;4.55;;
2129;SDS011;1071;52.544;13.374;2023-04-01T06:29:49;6.13;;;5.43;;
2129;SDS011;1071;52.544;13.374;2023-04-01T06:32:39;5.45;;;4.65;;
2129;SDS011;1071;52.544;13.374;2023-04-01T06:35:26;6.85;;;4.35;;
2129;SDS011;1071;52.544;13.374;2023-04-01T06:38:20;4.50;;;4.05;;
2129;SDS011;1071;52.544;13.374;2023-04-01T06:41:06;5.45;;;4.45;;
2129;SDS011;1071;52.544;13.374;2023-04-01T06:43:55;4.50;;;4.20;;
2129;SDS011;1071;52.544;13.374;2023-04-01T06:46:37;4.35;;;3.72;;
2129;SDS011;1071;52.544;13.374;2023-04-01T06:49:16;6.80;;;4.78;;
2129;SDS011;1071;52.544;13.374;2023-04-01T06:52:24;6.40;;;4.30;;
2129;SDS011;1071;52.544;13.374;2023-04-01T06:55:00;5.53;;;4.90;;
2129;SDS011;1071;52.544;13.374;2023-04-01T06:57:35;7.95;;;6.60;;
2129;SDS011;1071;52.544;13.374;2023-04-01T07:00:11;7.10;;;6.40;;
2129;SDS011;1071;52.544;13.374;2023-04-01T07:02:41;6.55;;;5.93;;
2129;SDS011;1071;52.544;13.374;2023-04-01T07:05:18;8.60;;;6.18;;
2129;SDS011;1071;52.544;13.374;2023-04-01T07:07:48;6.53;;;5.55;;
2129;SDS011;1071;52.544;13.374;2023-04-01T07:10:19;5.28;;;4.70;;
2129;SDS011;1071;52.544;13.374;2023-04-01T07:12:49;7.05;;;5.90;;
2129;SDS011;1071;52.544;13.374;2023-04-01T07:15:22;5.63;;;4.75;;
2129;SDS011;1071;52.544;13.374;2023-04-01T07:17:58;6.32;;;5.72;;
2129;SDS011;1071;52.544;13.374;2023-04-01T07:20:31;6.05;;;5.47;;
2129;SDS011;1071;52.544;13.374;2023-04-01T07:23:03;5.63;;;5.13;;
2129;SDS011;1071;52.544;13.374;2023-04-01T07:25:33;5.03;;;4.60;;
2129;SDS011;1071;52.544;13.374;2023-04-01T07:28:05;5.93;;;5.35;;
2129;SDS011;1071;52.544;13.374;2023-04-01T07:30:41;7.20;;;4.90;;
2129;SDS011;1071;52.544;13.374;2023-04-01T07:33:15;5.43;;;4.40;;
2129;SDS011;1071;52.544;13.374;2023-04-01T07:35:46;5.72;;;3.72;;
2129;SDS011;1071;52.544;13.374;2023-04-01T07:38:25;5.00;;;3.60;;
2129;SDS011;1071;52.544;13.374;2023-04-01T07:40:59;9.10;;;5.15;;
2129;SDS011;1071;52.544;13.374;2023-04-01T07:43:41;4.75;;;4.38;;
2129;SDS011;1071;52.544;13.374;2023-04-01T07:46:17;4.63;;;3.95;;
2129;SDS011;1071;52.544;13.374;2023-04-01T07:49:01;6.47;;;4.97;;
2129;SDS011;1071;52.544;13.374;2023-04-01T07:51:35;6.22;;;5.63;;
2129;SDS011;1071;52.544;13.374;2023-04-01T07:54:10;4.95;;;4.35;;
2129;SDS011;1071;52.544;13.374;2023-04-01T07:56:47;5.68;;;5.10;;
2129;SDS011;1071;52.544;13.374;2023-04-01T07:59:22;5.00;;;4.60;;
2129;SDS011;1071;52.544;13.374;2023-04-01T08:02:00;5.63;;;4.28;;
2129;SDS011;1071;52.544;13.374;2023-04-01T08:04:36;4.45;;;4.00;;
2129;SDS011;1071;52.544;13.374;2023-04-01T08:07:15;5.03;;;3.95;;
2129;SDS011;1071;52.544;13.374;2023-04-01T08:09:50;4.70;;;3.70;;
2129;SDS011;1071;52.544;13.374;2023-04-01T08:12:27;5.05;;;4.65;;
2129;SDS011;1071;52.544;13.374;2023-04-01T08:15:08;4.10;;;3.70;;
2129;SDS011;1071;52.544;13.374;2023-04-01T08:17:43;3.08;;;2.85;;
2129;SDS011;1071;52.544;13.374;2023-04-01T08:20:23;3.20;;;2.90;;
2129;SDS011;1071;52.544;13.374;2023-04-01T08:22:57;4.13;;;3.72;;
2129;SDS011;1071;52.544;13.374;2023-04-01T08:25:31;3.30;;;2.80;;
2129;SDS011;1071;52.544;13.374;2023-04-01T08:28:02;3.95;;;3.65;;
2129;SDS011;1071;52.544;13.374;2023-04-01T08:30:36;4.53;;;4.13;;
2129;SDS011;1071;52.544;13.374;2023-04-01T08:33:09;4.90;;;4.40;;
2129;SDS011;1071;52.544;13.374;2023-04-01T08:35:42;5.07;;;4.60;;
2129;SDS011;1071;52.544;13.374;2023-04-01T08:38:15;5.72;;;5.13;;
2129;SDS011;1071;52.544;13.374;2023-04-01T08:40:52;5.10;;;4.70;;
2129;SDS011;1071;52.544;13.374;2023-04-01T08:46:47;5.90;;;5.07;;
2129;SDS011;1071;52.544;13.374;2023-04-01T08:49:50;7.35;;;6.65;;
2129;SDS011;1071;52.544;13.374;2023-04-01T08:52:35;9.80;;;8.88;;
2129;SDS011;1071;52.544;13.374;2023-04-01T08:55:20;11.70;;;7.80;;
2129;SDS011;1071;52.544;13.374;2023-04-01T08:57:56;11.43;;;7.43;;
2129;SDS011;1071;52.544;13.374;2023-04-01T09:01:03;8.75;;;7.85;;
2129;SDS011;1071;52.544;13.374;2023-04-01T09:03:50;9.73;;;8.82;;
2129;SDS011;1071;52.544;13.374;2023-04-01T09:06:43;10.70;;;8.73;;
2129;SDS011;1071;52.544;13.374;2023-04-01T09:09:37;11.70;;;9.30;;
2129;SDS011;1071;52.544;13.374;2023-04-01T09:12:25;10.18;;;9.10;;
2129;SDS011;1071;52.544;13.374;2023-04-01T09:15:16;10.90;;;9.73;;
2129;SDS011;1071;52.544;13.374;2023-04-01T09:18:08;11.27;;;10.18;;
2129;SDS011;1071;52.544;13.374;2023-04-01T09:23:43;12.77;;;11.48;;
2129;SDS011;1071;52.544;13.374;2023-04-01T09:26:35;11.60;;;10.50;;
2129;SDS011;1071;52.544;13.374;2023-04-01T09:29:20;11.45;;;9.73;;
2129;SDS011;1071;52.544;13.374;2023-04-01T09:32:04;11.25;;;10.15;;
2129;SDS011;1071;52.544;13.374;2023-04-01T09:34:52;11.27;;;10.18;;
2129;SDS011;1071;52.544;13.374;2023-04-01T09:37:21;11.45;;;10.25;;
2129;SDS011;1071;52.544;13.374;2023-04-01T09:40:01;12.50;;;11.23;;
2129;SDS011;1071;52.544;13.374;2023-04-01T09:42:58;11.77;;;10.63;;
2129;SDS011;1071;52.544;13.374;2023-04-01T09:45:42;11.93;;;10.70;;
2129;SDS011;1071;52.544;13.374;2023-04-01T09:48:21;11.80;;;10.70;;
2129;SDS011;1071;52.544;13.374;2023-04-01T09:51:01;10.25;;;9.25;;
2129;SDS011;1071;52.544;13.374;2023-04-01T09:53:43;11.13;;;10.13;;
2129;SDS011;1071;52.544;13.374;2023-04-01T09:56:40;12.10;;;10.90;;
2129;SDS011;1071;52.544;13.374;2023-04-01T10:02:46;9.98;;;9.07;;
2129;SDS011;1071;52.544;13.374;2023-04-01T10:05:46;11.15;;;10.05;;
2129;SDS011;1071;52.544;13.374;2023-04-01T10:08:45;12.88;;;11.70;;
2129;SDS011;1071;52.544;13.374;2023-04-01T10:11:42;11.05;;;10.05;;
2129;SDS011;1071;52.544;13.374;2023-04-01T10:17:39;9.55;;;8.65;;
2129;SDS011;1071;52.544;13.374;2023-04-01T10:20:38;10.10;;;9.20;;
2129;SDS011;1071;52.544;13.374;2023-04-01T10:26:23;12.32;;;11.13;;
2129;SDS011;1071;52.544;13.374;2023-04-01T10:32:31;12.30;;;11.20;;
2129;SDS011;1071;52.544;13.374;2023-04-01T10:35:24;13.68;;;12.27;;
2129;SDS011;1071;52.544;13.374;2023-04-01T10:38:16;13.65;;;12.18;;
2129;SDS011;1071;52.544;13.374;2023-04-01T10:41:05;13.13;;;11.93;;
2129;SDS011;1071;52.544;13.374;2023-04-01T10:50:23;12.65;;;11.43;;
2129;SDS011;1071;52.544;13.374;2023-04-01T10:53:22;12.55;;;11.25;;
2129;SDS011;1071;52.544;13.374;2023-04-01T10:56:29;12.07;;;10.88;;
2129;SDS011;1071;52.544;13.374;2023-04-01T10:59:31;11.48;;;10.38;;
2129;SDS011;1071;52.544;13.374;2023-04-01T11:05:31;11.90;;;10.80;;
2129;SDS011;1071;52.544;13.374;2023-04-01T11:08:44;12.35;;;11.15;;
2129;SDS011;1071;52.544;13.374;2023-04-01T11:12:01;10.25;;;9.43;;
2129;SDS011;1071;52.544;13.374;2023-04-01T11:14:57;10.43;;;9.45;;
2129;SDS011;1071;52.544;13.374;2023-04-01T11:24:13;11.90;;;10.85;;
2129;SDS011;1071;52.544;13.374;2023-04-01T11:26:51;11.73;;;10.63;;
2129;SDS011;1071;52.544;13.374;2023-04-01T11:32:46;10.95;;;9.95;;
2129;SDS011;1071;52.544;13.374;2023-04-01T11:35:33;10.80;;;9.70;;
2129;SDS011;1071;52.544;13.374;2023-04-01T11:38:17;13.10;;;11.90;;
2129;SDS011;1071;52.544;13.374;2023-04-01T11:40:53;11.85;;;10.75;;
2129;SDS011;1071;52.544;13.374;2023-04-01T11:43:27;13.07;;;11.90;;
2129;SDS011;1071;52.544;13.374;2023-04-01T11:46:01;12.52;;;11.40;;
2129;SDS011;1071;52.544;13.374;2023-04-01T11:48:40;12.13;;;11.13;;
2129;SDS011;1071;52.544;13.374;2023-04-01T11:51:32;11.25;;;10.25;;
2129;SDS011;1071;52.544;13.374;2023-04-01T11:54:14;13.40;;;12.25;;
2129;SDS011;1071;52.544;13.374;2023-04-01T11:56:59;11.65;;;10.63;;
2129;SDS011;1071;52.544;13.374;2023-04-01T11:59:45;12.13;;;11.05;;
2129;SDS011;1071;52.544;13.374;2023-04-01T12:02:23;12.35;;;11.20;;
2129;SDS011;1071;52.544;13.374;2023-04-01T12:05:03;12.82;;;11.73;;
2129;SDS011;1071;52.544;13.374;2023-04-01T12:08:01;12.52;;;11.38;;
2129;SDS011;1071;52.544;13.374;2023-04-01T12:10:40;14.10;;;12.75;;
2129;SDS011;1071;52.544;13.374;2023-04-01T12:13:18;13.85;;;12.65;;
2129;SDS011;1071;52.544;13.374;2023-04-01T12:16:13;12.82;;;11.70;;
2129;SDS011;1071;52.544;13.374;2023-04-01T12:18:50;13.48;;;12.25;;
2129;SDS011;1071;52.544;13.374;2023-04-01T12:21:24;12.73;;;11.43;;
2129;SDS011;1071;52.544;13.374;2023-04-01T12:24:03;11.65;;;10.65;;
2129;SDS011;1071;52.544;13.374;2023-04-01T12:27:12;12.70;;;11.60;;
2129;SDS011;1071;52.544;13.374;2023-04-01T12:30:02;12.80;;;11.57;;
2129;SDS011;1071;52.544;13.374;2023-04-01T12:32:45;13.40;;;12.20;;
2129;SDS011;1071;52.544;13.374;2023-04-01T12:35:22;17.00;;;13.93;;
2129;SDS011;1071;52.544;13.374;2023-04-01T12:37:55;14.55;;;13.10;;
2129;SDS011;1071;52.544;13.374;2023-04-01T12:40:56;12.63;;;11.52;;
2129;SDS011;1071;52.544;13.374;2023-04-01T12:46:52;12.70;;;11.60;;
2129;SDS011;1071;52.544;13.374;2023-04-01T12:49:55;13.75;;;12.55;;
2129;SDS011;1071;52.544;13.374;2023-04-01T12:52:39;12.68;;;11.48;;
2129;SDS011;1071;52.544;13.374;2023-04-01T12:55:36;14.88;;;13.38;;
2129;SDS011;1071;52.544;13.374;2023-04-01T12:58:31;13.70;;;12.40;;
2129;SDS011;1071;52.544;13.374;2023-04-01T13:01:13;16.10;;;14.40;;
2129;SDS011;1071;52.544;13.374;2023-04-01T13:07:05;15.13;;;13.75;;
2129;SDS011;1071;52.544;13.374;2023-04-01T13:09:50;15.80;;;14.40;;
2129;SDS011;1071;52.544;13.374;2023-04-01T13:12:30;14.77;;;13.45;;
2129;SDS011;1071;52.544;13.374;2023-04-01T13:15:33;15.25;;;13.85;;
2129;SDS011;1071;52.544;13.374;2023-04-01T13:18:27;15.52;;;13.80;;
2129;SDS011;1071;52.544;13.374;2023-04-01T13:21:08;13.52;;;11.90;;
2129;SDS011;1071;52.544;13.374;2023-04-01T13:23:48;13.13;;;11.80;;
2129;SDS011;1071;52.544;13.374;2023-04-01T13:26:31;13.50;;;12.30;;
2129;SDS011;1071;52.544;13.374;2023-04-01T13:29:05;14.27;;;12.88;;
2129;SDS011;1071;52.544;13.374;2023-04-01T13:31:42;14.45;;;13.05;;
2129;SDS011;1071;52.544;13.374;2023-04-01T13:34:22;13.82;;;12.50;;
2129;SDS011;1071;52.544;13.374;2023-04-01T13:36:59;13.23;;;12.00;;
2129;SDS011;1071;52.544;13.374;2023-04-01T13:39:45;11.68;;;10.57;;
2129;SDS011;1071;52.544;13.374;2023-04-01T13:42:26;13.52;;;12.18;;
2129;SDS011;1071;52.544;13.374;2023-04-01T13:44:56;13.50;;;12.10;;
2129;SDS011;1071;52.544;13.374;2023-04-01T13:47:40;12.77;;;11.60;;
2129;SDS011;1071;52.544;13.374;2023-04-01T13:56:35;11.25;;;10.15;;
2129;SDS011;1071;52.544;13.374;2023-04-01T14:02:24;9.23;;;8.43;;
2129;SDS011;1071;52.544;13.374;2023-04-01T14:05:10;8.48;;;7.55;;
2129;SDS011;1071;52.544;13.374;2023-04-01T14:07:56;7.35;;;6.75;;
2129;SDS011;1071;52.544;13.374;2023-04-01T14:10:31;7.60;;;6.90;;
2129;SDS011;1071;52.544;13.374;2023-04-01T14:13:07;8.65;;;7.95;;
2129;SDS011;1071;52.544;13.374;2023-04-01T14:15:59;7.30;;;6.70;;
2129;SDS011;1071;52.544;13.374;2023-04-01T14:18:57;8.23;;;7.45;;
2129;SDS011;1071;52.544;13.374;2023-04-01T14:21:38;7.68;;;6.93;;
2129;SDS011;1071;52.544;13.374;2023-04-01T14:27:29;6.32;;;5.70;;
2129;SDS011;1071;52.544;13.374;2023-04-01T14:30:11;5.75;;;5.25;;
2129;SDS011;1071;52.544;13.374;2023-04-01T14:32:58;5.97;;;5.47;;
2129;SDS011;1071;52.544;13.374;2023-04-01T14:35:37;6.50;;;5.90;;
2129;SDS011;1071;52.544;13.374;2023-04-01T14:38:18;5.85;;;5.25;;
2129;SDS011;1071;52.544;13.374;2023-04-01T14:40:58;5.93;;;5.43;;
2129;SDS011;1071;52.544;13.374;2023-04-01T14:43:45;6.20;;;5.60;;
2129;SDS011;1071;52.544;13.374;2023-04-01T14:49:35;5.68;;;5.18;;
2129;SDS011;1071;52.544;13.374;2023-04-01T14:52:06;6.25;;;5.65;;
2129;SDS011;1071;52.544;13.374;2023-04-01T14:54:40;5.43;;;5.00;;
2129;SDS011;1071;52.544;13.374;2023-04-01T14:57:11;6.53;;;6.00;;
2129;SDS011;1071;52.544;13.374;2023-04-01T14:59:40;5.40;;;5.00;;
2129;SDS011;1071;52.544;13.374;2023-04-01T15:02:14;4.82;;;3.95;;
2129;SDS011;1071;52.544;13.374;2023-04-01T15:05:03;5.90;;;5.40;;
2129;SDS011;1071;52.544;13.374;2023-04-01T15:07:49;6.80;;;6.22;;
2129;SDS011;1071;52.544;13.374;2023-04-01T15:10:42;5.88;;;5.30;;
2129;SDS011;1071;52.544;13.374;2023-04-01T15:13:35;5.85;;;5.35;;
2129;SDS011;1071;52.544;13.374;2023-04-01T15:16:19;5.40;;;4.95;;
2129;SDS011;1071;52.544;13.374;2023-04-01T15:18:53;5.65;;;5.15;;
2129;SDS011;1071;52.544;13.374;2023-04-01T15:21:33;5.97;;;5.30;;
2129;SDS011;1071;52.544;13.374;2023-04-01T15:24:24;6.15;;;5.65;;
2129;SDS011;1071;52.544;13.374;2023-04-01T15:29:56;6.93;;;6.22;;
2129;SDS011;1071;52.544;13.374;2023-04-01T15:32:46;8.10;;;7.22;;
2129;SDS011;1071;52.544;13.374;2023-04-01T15:35:26;7.07;;;6.47;;
2129;SDS011;1071;52.544;13.374;2023-04-01T15:38:05;6.93;;;6.43;;
2129;SDS011;1071;52.544;13.374;2023-04-01T15:40:37;8.15;;;7.47;;
2129;SDS011;1071;52.544;13.374;2023-04-01T15:43:15;7.82;;;7.13;;
2129;SDS011;1071;52.544;13.374;2023-04-01T15:45:50;8.90;;;7.88;;
2129;SDS011;1071;52.544;13.374;2023-04-01T15:48:34;6.90;;;6.30;;
2129;SDS011;1071;52.544;13.374;2023-04-01T15:51:24;8.68;;;7.80;;
2129;SDS011;1071;52.544;13.374;2023-04-01T15:54:11;10.70;;;7.57;;
2129;SDS011;1071;52.544;13.374;2023-04-01T15:57:04;8.15;;;7.45;;
2129;SDS011;1071;52.544;13.374;2023-04-01T15:59:50;8.43;;;7.68;;
2129;SDS011;1071;52.544;13.374;2023-04-01T16:02:33;6.65;;;6.03;;
2129;SDS011;1071;52.544;13.374;2023-04-01T16:05:11;6.28;;;5.75;;
2129;SDS011;1071;52.544;13.374;2023-04-01T16:08:14;10.43;;;6.75;;
2129;SDS011;1071;52.544;13.374;2023-04-01T16:10:58;8.27;;;6.57;;
2129;SDS011;1071;52.544;13.374;2023-04-01T16:13:46;6.40;;;5.90;;
2129;SDS011;1071;52.544;13.374;2023-04-01T16:16:25;6.20;;;5.65;;
2129;SDS011;1071;52.544;13.374;2023-04-01T16:22:00;7.13;;;5.70;;
2129;SDS011;1071;52.544;13.374;2023-04-01T16:24:33;6.15;;;5.65;;
2129;SDS011;1071;52.544;13.374;2023-04-01T16:27:08;5.95;;;5.32;;
2129;SDS011;1071;52.544;13.374;2023-04-01T16:29:41;7.22;;;5.28;;
2129;SDS011;1071;52.544;13.374;2023-04-01T16:32:18;5.25;;;4.75;;
2129;SDS011;1071;52.544;13.374;2023-04-01T16:34:57;6.47;;;5.20;;
2129;SDS011;1071;52.544;13.374;2023-04-01T16:37:45;6.28;;;5.68;;
2129;SDS011;1071;52.544;13.374;2023-04-01T16:40:16;6.30;;;5.70;;
2129;SDS011;1071;52.544;13.374;2023-04-01T16:42:54;6.63;;;5.47;;
2129;SDS011;1071;52.544;13.374;2023-04-01T16:45:33;5.82;;;5.32;;
2129;SDS011;1071;52.544;13.374;2023-04-01T16:48:06;6.05;;;5.55;;
2129;SDS011;1071;52.544;13.374;2023-04-01T16:50:42;5.85;;;5.35;;
2129;SDS011;1071;52.544;13.374;2023-04-01T16:53:21;7.22;;;5.28;;
2129;SDS011;1071;52.544;13.374;2023-04-01T16:56:03;9.70;;;4.38;;
2129;SDS011;1071;52.544;13.374;2023-04-01T16:58:41;5.38;;;4.88;;
2129;SDS011;1071;52.544;13.374;2023-04-01T17:01:16;5.85;;;5.00;;
2129;SDS011;1071;52.544;13.374;2023-04-01T17:03:58;6.57;;;5.95;;
2129;SDS011;1071;52.544;13.374;2023-04-01T17:06:31;5.45;;;4.95;;
2129;SDS011;1071;52.544;13.374;2023-04-01T17:09:09;6.72;;;5.13;;
2129;SDS011;1071;52.544;13.374;2023-04-01T17:11:49;4.97;;;4.35;;
2129;SDS011;1071;52.544;13.374;2023-04-01T17:14:29;4.88;;;4.47;;